In Rescue
 
Open Full Screen Window  High Contrast Mode
Wind Gusting 00 knots
08
November 29, 2022 7:33 AM CST
Weather Information
Wind Direction
  350 °
Wind Speed
  08 kt (9 mph)
Wind Gust
  00 kt (0 mph)
Altimeter
29.67 in
Visibility
10 SM
Temperature
-01° C
30° F
Dewpoint
-02° C
28° F
Humidity
93%
1hr Rain Fall
00.00 in.
24hr Rain Fall
00.00 in.
Sky Condition
Overcast @ 900 ft
IFR

METAR KOWA 291333Z AUTO 35008KT 10SM OVC009 M01/M02 A2967 RMK AO2

FAA Disclaimer: The data displayed is for advisory purposes only and is not to be used for flight planning or operations.